| time (UTC) | temp F | wind direction | speed MPH | gust MPH | rain 1hr in | rain 24hr in | rain mn in | humidity % | barometer mb |
| 20260508181338 | 66 | 292 | 0.0 | 3.0 | 0.00 | 0.00 | 0.00 | 67 | 1009.9 |
| 20260508180835 | 66 | 351 | 2.0 | 5.0 | 0.00 | 0.00 | 0.00 | 67 | 1009.9 |
| 20260508180332 | 65 | 92 | 1.0 | 3.0 | 0.00 | 0.00 | 0.00 | 67 | 1009.9 |
| 20260508175828 | 66 | 29 | 1.0 | 6.0 | 0.00 | 0.00 | 0.00 | 66 | 1010.0 |
| 20260508175324 | 65 | 141 | 1.0 | 3.0 | 0.00 | 0.00 | 0.00 | 67 | 1009.8 |
| 20260508174823 | 65 | 154 | 2.0 | 3.0 | 0.00 | 0.00 | 0.00 | 67 | 1009.7 |
| 20260508174320 | 65 | 134 | 0.0 | 3.0 | 0.00 | 0.00 | 0.00 | 67 | 1009.5 |
| 20260508173816 | 64 | 160 | 3.0 | 3.0 | 0.00 | 0.00 | 0.00 | 67 | 1009.3 |
| 20260508173313 | 64 | 134 | 1.0 | 2.0 | 0.00 | 0.00 | 0.00 | 68 | 1009.2 |
| 20260508172809 | 64 | 130 | 1.0 | 1.0 | 0.00 | 0.00 | 0.00 | 68 | 1009.4 |
| 20260508172307 | 64 | 130 | 0.0 | 0.0 | 0.00 | 0.00 | 0.00 | 69 | 1010.0 |
| 20260508171803 | 64 | 133 | 1.0 | 2.0 | 0.00 | 0.00 | 0.00 | 69 | 1009.8 |
| 20260508171259 | 64 | 129 | 0.0 | 1.0 | 0.00 | 0.00 | 0.00 | 69 | 1010.3 |
| 20260508170755 | 64 | 129 | 0.0 | 2.0 | 0.00 | 0.00 | 0.00 | 69 | 1010.2 |
| 20260508170253 | 64 | 128 | 0.0 | 1.0 | 0.00 | 0.00 | 0.00 | 68 | 1010.2 |
| 20260508165744 | 64 | 147 | 1.0 | 3.0 | 0.00 | 0.00 | 0.00 | 67 | 1010.2 |
| 20260508165242 | 64 | 134 | 1.0 | 2.0 | 0.00 | 0.00 | 0.00 | 68 | 1010.4 |
| 20260508164738 | 64 | 140 | 1.0 | 3.0 | 0.00 | 0.00 | 0.00 | 68 | 1010.3 |
| 20260508164234 | 64 | 174 | 2.0 | 6.0 | 0.00 | 0.00 | 0.00 | 68 | 1010.5 |
| 20260508163733 | 64 | 135 | 0.0 | 3.0 | 0.00 | 0.00 | 0.00 | 67 | 1010.0 |
| 20260508163230 | 64 | 139 | 5.0 | 6.0 | 0.00 | 0.00 | 0.00 | 68 | 1010.2 |
| 20260508162725 | 64 | 151 | 4.0 | 6.0 | 0.00 | 0.00 | 0.00 | 68 | 1009.8 |
| 20260508162223 | 63 | 146 | 1.0 | 2.0 | 0.00 | 0.00 | 0.00 | 69 | 1009.7 |
| 20260508161719 | 63 | 154 | 2.0 | 3.0 | 0.00 | 0.00 | 0.00 | 68 | 1010.2 |
| 20260508161217 | 63 | 141 | 2.0 | 2.0 | 0.00 | 0.00 | 0.00 | 68 | 1009.9 |
| 20260508160715 | 63 | 167 | 3.0 | 5.0 | 0.00 | 0.00 | 0.00 | 69 | 1009.9 |
| 20260508160213 | 63 | 137 | 1.0 | 5.0 | 0.00 | 0.00 | 0.00 | 69 | 1010.2 |
| 20260508155709 | 62 | 161 | 3.0 | 5.0 | 0.00 | 0.00 | 0.00 | 69 | 1010.2 |
| 20260508155206 | 62 | 133 | 3.0 | 3.0 | 0.00 | 0.00 | 0.00 | 70 | 1010.2 |
| 20260508154703 | 62 | 134 | 2.0 | 3.0 | 0.00 | 0.00 | 0.00 | 70 | 1010.2 |
| 20260508154200 | 62 | 163 | 3.0 | 5.0 | 0.00 | 0.00 | 0.00 | 69 | 1010.1 |
| 20260508153656 | 62 | 159 | 5.0 | 7.0 | 0.00 | 0.00 | 0.00 | 69 | 1010.3 |
| 20260508153154 | 61 | 151 | 3.0 | 5.0 | 0.00 | 0.00 | 0.00 | 70 | 1010.3 |
| 20260508152650 | 61 | 135 | 1.0 | 2.0 | 0.00 | 0.00 | 0.00 | 71 | 1010.2 |
| 20260508152146 | 61 | 140 | 1.0 | 2.0 | 0.00 | 0.00 | 0.00 | 70 | 1010.2 |
| 20260508151643 | 61 | 147 | 3.0 | 3.0 | 0.00 | 0.00 | 0.00 | 70 | 1010.7 |
| 20260508151139 | 61 | 135 | 1.0 | 2.0 | 0.00 | 0.00 | 0.00 | 70 | 1010.5 |
| 20260508150636 | 60 | 144 | 2.0 | 3.0 | 0.00 | 0.00 | 0.00 | 70 | 1010.6 |
| 20260508150133 | 60 | 146 | 2.0 | 3.0 | 0.00 | 0.00 | 0.00 | 71 | 1010.6 |
| 20260508145629 | 60 | 155 | 2.0 | 5.0 | 0.00 | 0.00 | 0.00 | 70 | 1010.6 |
| 20260508145125 | 60 | 133 | 0.0 | 2.0 | 0.00 | 0.00 | 0.00 | 70 | 1010.5 |
| 20260508144623 | 60 | 136 | 1.0 | 2.0 | 0.00 | 0.00 | 0.00 | 70 | 1010.6 |
| 20260508144121 | 60 | 136 | 1.0 | 2.0 | 0.00 | 0.00 | 0.00 | 70 | 1010.8 |
| 20260508143618 | 60 | 134 | 2.0 | 2.0 | 0.00 | 0.00 | 0.00 | 71 | 1010.6 |
| 20260508143114 | 59 | 137 | 1.0 | 3.0 | 0.00 | 0.00 | 0.00 | 70 | 1010.8 |
| 20260508142611 | 59 | 144 | 2.0 | 5.0 | 0.00 | 0.00 | 0.00 | 70 | 1010.6 |
| 20260508142108 | 59 | 134 | 2.0 | 3.0 | 0.00 | 0.00 | 0.00 | 69 | 1010.7 |
| 20260508141605 | 59 | 149 | 3.0 | 7.0 | 0.00 | 0.00 | 0.00 | 69 | 1010.3 |
| 20260508141102 | 59 | 148 | 1.0 | 3.0 | 0.00 | 0.00 | 0.00 | 70 | 1010.4 |
| 20260508140559 | 59 | 160 | 3.0 | 6.0 | 0.00 | 0.00 | 0.00 | 70 | 1010.5 |
| 20260508140056 | 59 | 160 | 3.0 | 3.0 | 0.00 | 0.00 | 0.00 | 70 | 1010.5 |
| 20260508135551 | 59 | 136 | 2.0 | 2.0 | 0.00 | 0.00 | 0.00 | 70 | 1010.4 |
| 20260508135048 | 59 | 154 | 3.0 | 6.0 | 0.00 | 0.00 | 0.00 | 71 | 1010.5 |
| 20260508134544 | 59 | 142 | 2.0 | 3.0 | 0.00 | 0.00 | 0.00 | 71 | 1010.5 |
| 20260508134042 | 59 | 141 | 1.0 | 3.0 | 0.00 | 0.00 | 0.00 | 70 | 1010.5 |
| 20260508133538 | 59 | 147 | 2.0 | 3.0 | 0.00 | 0.00 | 0.00 | 71 | 1010.6 |
| 20260508133036 | 59 | 146 | 2.0 | 3.0 | 0.00 | 0.00 | 0.00 | 71 | 1010.5 |
| 20260508132533 | 59 | 145 | 3.0 | 3.0 | 0.00 | 0.00 | 0.00 | 71 | 1010.6 |
| 20260508132030 | 59 | 140 | 1.0 | 2.0 | 0.00 | 0.00 | 0.00 | 71 | 1010.8 |
| 20260508131525 | 59 | 147 | 2.0 | 3.0 | 0.00 | 0.00 | 0.00 | 70 | 1010.6 |
| 20260508131022 | 59 | 155 | 3.0 | 5.0 | 0.00 | 0.00 | 0.00 | 69 | 1010.5 |
| 20260508130519 | 59 | 152 | 2.0 | 3.0 | 0.00 | 0.00 | 0.00 | 70 | 1010.8 |
| 20260508130015 | 59 | 157 | 3.0 | 6.0 | 0.00 | 0.00 | 0.00 | 70 | 1010.5 |
| 20260508125511 | 58 | 154 | 3.0 | 3.0 | 0.00 | 0.00 | 0.00 | 70 | 1010.7 |
| 20260508125009 | 58 | 142 | 1.0 | 2.0 | 0.00 | 0.00 | 0.00 | 69 | 1010.4 |
| 20260508124506 | 58 | 138 | 2.0 | 2.0 | 0.00 | 0.00 | 0.00 | 69 | 1010.7 |
| 20260508124003 | 58 | 147 | 2.0 | 3.0 | 0.00 | 0.00 | 0.00 | 68 | 1010.7 |
| 20260508123502 | 59 | 129 | 2.0 | 2.0 | 0.00 | 0.00 | 0.00 | 68 | 1010.6 |
| 20260508122958 | 58 | 40 | 0.0 | 2.0 | 0.00 | 0.00 | 0.00 | 68 | 1010.6 |
| 20260508122455 | 58 | 115 | 0.0 | 1.0 | 0.00 | 0.00 | 0.00 | 68 | 1010.9 |
| 20260508121952 | 58 | 122 | 1.0 | 2.0 | 0.00 | 0.00 | 0.00 | 68 | 1010.3 |
| 20260508121450 | 58 | 112 | 0.0 | 1.0 | 0.00 | 0.00 | 0.00 | 68 | 1010.3 |
| 20260508120948 | 58 | 126 | 0.0 | 0.0 | 0.00 | 0.00 | 0.00 | 68 | 1010.4 |
| 20260508120445 | 58 | 134 | 2.0 | 3.0 | 0.00 | 0.00 | 0.00 | 68 | 1009.9 |
| 20260508115943 | 58 | 153 | 2.0 | 3.0 | 0.00 | 0.00 | 0.00 | 68 | 1010.2 |
| 20260508115441 | 58 | 150 | 2.0 | 2.0 | 0.00 | 0.00 | 0.00 | 67 | 1010.1 |
| 20260508114936 | 58 | 133 | 2.0 | 2.0 | 0.00 | 0.00 | 0.00 | 68 | 1010.0 |
| 20260508114434 | 58 | 157 | 3.0 | 3.0 | 0.00 | 0.00 | 0.00 | 68 | 1009.9 |
| 20260508113930 | 58 | 127 | 1.0 | 2.0 | 0.00 | 0.00 | 0.00 | 68 | 1009.9 |
| 20260508113428 | 58 | 126 | 0.0 | 2.0 | 0.00 | 0.00 | 0.00 | 68 | 1009.7 |
| 20260508112925 | 58 | 140 | 2.0 | 3.0 | 0.00 | 0.00 | 0.00 | 68 | 1009.5 |
| 20260508112422 | 58 | 157 | 2.0 | 3.0 | 0.00 | 0.00 | 0.00 | 68 | 1009.5 |
| 20260508111918 | 58 | 146 | 1.0 | 2.0 | 0.00 | 0.00 | 0.00 | 68 | 1009.6 |
| 20260508111415 | 58 | 158 | 3.0 | 3.0 | 0.00 | 0.00 | 0.00 | 68 | 1009.5 |
| 20260508110913 | 58 | 142 | 1.0 | 2.0 | 0.00 | 0.00 | 0.00 | 68 | 1009.6 |
| 20260508110411 | 58 | 155 | 1.0 | 3.0 | 0.00 | 0.00 | 0.00 | 68 | 1009.7 |
| 20260508105910 | 58 | 146 | 2.0 | 3.0 | 0.00 | 0.00 | 0.00 | 68 | 1009.5 |
| 20260508105406 | 58 | 145 | 2.0 | 3.0 | 0.00 | 0.00 | 0.00 | 68 | 1009.6 |
| 20260508104904 | 58 | 151 | 2.0 | 3.0 | 0.00 | 0.00 | 0.00 | 68 | 1009.6 |
| 20260508104401 | 58 | 130 | 0.0 | 3.0 | 0.00 | 0.00 | 0.00 | 68 | 1009.5 |
| 20260508103858 | 58 | 156 | 3.0 | 5.0 | 0.00 | 0.00 | 0.00 | 68 | 1009.5 |
| 20260508103355 | 58 | 142 | 2.0 | 3.0 | 0.00 | 0.00 | 0.00 | 68 | 1009.6 |
| 20260508102852 | 58 | 125 | 1.0 | 5.0 | 0.00 | 0.00 | 0.00 | 68 | 1009.7 |
| 20260508102350 | 58 | 146 | 2.0 | 5.0 | 0.00 | 0.00 | 0.00 | 67 | 1009.5 |
| 20260508101847 | 58 | 188 | 5.0 | 7.0 | 0.00 | 0.00 | 0.00 | 67 | 1009.5 |
| 20260508101344 | 58 | 159 | 3.0 | 5.0 | 0.00 | 0.00 | 0.00 | 67 | 1009.6 |
| 20260508100842 | 58 | 140 | 1.0 | 3.0 | 0.00 | 0.00 | 0.00 | 67 | 1009.4 |
| 20260508100341 | 58 | 153 | 2.0 | 6.0 | 0.00 | 0.00 | 0.00 | 67 | 1009.4 |
| 20260508095836 | 58 | 153 | 3.0 | 5.0 | 0.00 | 0.00 | 0.00 | 67 | 1009.5 |
| 20260508095334 | 58 | 141 | 1.0 | 2.0 | 0.00 | 0.00 | 0.00 | 67 | 1009.6 |
| 20260508094831 | 58 | 144 | 2.0 | 3.0 | 0.00 | 0.00 | 0.00 | 67 | 1009.5 |
| 20260508094327 | 57 | 140 | 3.0 | 3.0 | 0.00 | 0.00 | 0.00 | 67 | 1009.4 |
| 20260508093824 | 58 | 155 | 3.0 | 3.0 | 0.00 | 0.00 | 0.00 | 68 | 1009.4 |
| 20260508093322 | 57 | 146 | 2.0 | 3.0 | 0.00 | 0.00 | 0.00 | 67 | 1009.5 |
| 20260508092819 | 57 | 148 | 3.0 | 3.0 | 0.00 | 0.00 | 0.00 | 68 | 1009.5 |
| 20260508092317 | 57 | 145 | 2.0 | 5.0 | 0.00 | 0.00 | 0.00 | 68 | 1009.4 |
| 20260508091815 | 57 | 143 | 1.0 | 2.0 | 0.00 | 0.00 | 0.00 | 69 | 1009.5 |
| 20260508091311 | 57 | 143 | 2.0 | 2.0 | 0.00 | 0.00 | 0.00 | 69 | 1009.5 |
| 20260508090810 | 57 | 145 | 2.0 | 5.0 | 0.00 | 0.00 | 0.00 | 69 | 1009.7 |
| 20260508090308 | 56 | 141 | 1.0 | 2.0 | 0.00 | 0.00 | 0.00 | 69 | 1009.5 |
| 20260508085803 | 56 | 139 | 1.0 | 2.0 | 0.00 | 0.00 | 0.00 | 69 | 1009.6 |
| 20260508085301 | 56 | 138 | 1.0 | 2.0 | 0.00 | 0.00 | 0.00 | 69 | 1009.5 |
| 20260508084756 | 56 | 139 | 0.0 | 3.0 | 0.00 | 0.00 | 0.00 | 69 | 1009.6 |
| 20260508084254 | 56 | 140 | 2.0 | 2.0 | 0.00 | 0.00 | 0.00 | 70 | 1009.6 |
| 20260508083751 | 56 | 139 | 0.0 | 2.0 | 0.00 | 0.00 | 0.00 | 70 | 1009.7 |
| 20260508083249 | 56 | 139 | 1.0 | 2.0 | 0.00 | 0.00 | 0.00 | 70 | 1009.9 |
| 20260508082748 | 56 | 141 | 1.0 | 2.0 | 0.00 | 0.00 | 0.00 | 70 | 1010.0 |
| 20260508082246 | 56 | 139 | 1.0 | 2.0 | 0.00 | 0.00 | 0.00 | 70 | 1009.8 |
| 20260508081743 | 56 | 138 | 0.0 | 1.0 | 0.00 | 0.00 | 0.00 | 70 | 1010.1 |
| 20260508081240 | 56 | 138 | 0.0 | 1.0 | 0.00 | 0.00 | 0.00 | 70 | 1010.0 |
| 20260508080737 | 56 | 136 | 1.0 | 2.0 | 0.00 | 0.00 | 0.00 | 70 | 1009.9 |
| 20260508080235 | 56 | 139 | 1.0 | 2.0 | 0.00 | 0.00 | 0.00 | 70 | 1010.0 |
| 20260508075731 | 56 | 141 | 1.0 | 1.0 | 0.00 | 0.00 | 0.00 | 69 | 1009.9 |
| 20260508075228 | 56 | 147 | 3.0 | 3.0 | 0.00 | 0.00 | 0.00 | 69 | 1010.1 |
| 20260508074726 | 57 | 141 | 1.0 | 3.0 | 0.00 | 0.00 | 0.00 | 68 | 1010.2 |
| 20260508074224 | 57 | 142 | 1.0 | 2.0 | 0.00 | 0.00 | 0.00 | 68 | 1010.1 |
| 20260508073720 | 57 | 143 | 1.0 | 2.0 | 0.00 | 0.00 | 0.00 | 68 | 1010.3 |
| 20260508073218 | 57 | 148 | 1.0 | 3.0 | 0.00 | 0.00 | 0.00 | 67 | 1010.4 |
| 20260508072714 | 57 | 141 | 2.0 | 3.0 | 0.00 | 0.00 | 0.00 | 68 | 1010.4 |
| 20260508072211 | 57 | 137 | 1.0 | 2.0 | 0.00 | 0.00 | 0.00 | 68 | 1010.4 |
| 20260508071708 | 57 | 137 | 1.0 | 3.0 | 0.00 | 0.00 | 0.00 | 67 | 1010.8 |
| 20260508071207 | 57 | 136 | 1.0 | 1.0 | 0.00 | 0.00 | 0.00 | 68 | 1010.7 |
| 20260508070703 | 57 | 133 | 2.0 | 2.0 | 0.00 | 0.00 | 0.00 | 67 | 1010.6 |
| 20260508070202 | 57 | 124 | 1.0 | 2.0 | 0.00 | 0.00 | 0.00 | 67 | 1010.7 |
| 20260508065659 | 57 | 137 | 1.0 | 3.0 | 0.00 | 0.00 | 0.00 | 67 | 1010.8 |
| 20260508065157 | 57 | 138 | 1.0 | 2.0 | 0.00 | 0.00 | 0.00 | 67 | 1010.9 |
| 20260508064654 | 58 | 141 | 1.0 | 2.0 | 0.00 | 0.00 | 0.00 | 67 | 1010.7 |
| 20260508064152 | 58 | 148 | 2.0 | 3.0 | 0.00 | 0.00 | 0.00 | 66 | 1011.0 |
| 20260508063650 | 58 | 161 | 3.0 | 5.0 | 0.00 | 0.00 | 0.00 | 66 | 1010.8 |
| 20260508063147 | 58 | 139 | 2.0 | 3.0 | 0.00 | 0.00 | 0.00 | 65 | 1010.9 |
| 20260508062644 | 58 | 133 | 2.0 | 2.0 | 0.00 | 0.00 | 0.00 | 65 | 1011.0 |
| 20260508062141 | 59 | 121 | 0.0 | 2.0 | 0.00 | 0.00 | 0.00 | 64 | 1011.2 |
| 20260508061638 | 59 | 126 | 1.0 | 2.0 | 0.00 | 0.00 | 0.00 | 64 | 1011.1 |
| 20260508061136 | 59 | 167 | 3.0 | 3.0 | 0.00 | 0.00 | 0.00 | 64 | 1011.2 |
| 20260508060633 | 59 | 146 | 1.0 | 7.0 | 0.00 | 0.00 | 0.00 | 63 | 1011.0 |
| 20260508060130 | 59 | 140 | 2.0 | 3.0 | 0.00 | 0.00 | 0.00 | 63 | 1011.1 |
| 20260508055625 | 59 | 158 | 3.0 | 3.0 | 0.00 | 0.00 | 0.00 | 63 | 1011.3 |
| 20260508055122 | 59 | 155 | 2.0 | 3.0 | 0.00 | 0.00 | 0.00 | 62 | 1011.3 |
| 20260508054619 | 60 | 136 | 1.0 | 3.0 | 0.00 | 0.00 | 0.00 | 62 | 1011.3 |
| 20260508054116 | 60 | 141 | 2.0 | 3.0 | 0.00 | 0.00 | 0.00 | 62 | 1011.1 |
| 20260508053613 | 60 | 128 | 2.0 | 2.0 | 0.00 | 0.00 | 0.00 | 62 | 1011.1 |
| 20260508053111 | 60 | 165 | 2.0 | 3.0 | 0.00 | 0.00 | 0.00 | 61 | 1011.3 |
| 20260508052608 | 60 | 146 | 3.0 | 5.0 | 0.00 | 0.00 | 0.00 | 61 | 1011.0 |
| 20260508052105 | 60 | 147 | 2.0 | 5.0 | 0.00 | 0.00 | 0.00 | 60 | 1011.1 |
| 20260508051601 | 60 | 151 | 3.0 | 5.0 | 0.00 | 0.00 | 0.00 | 60 | 1011.1 |
| 20260508051057 | 61 | 147 | 2.0 | 7.0 | 0.00 | 0.00 | 0.00 | 60 | 1011.1 |
| 20260508050553 | 61 | 152 | 3.0 | 6.0 | 0.00 | 0.00 | 0.00 | 59 | 1011.5 |
| 20260508050051 | 61 | 130 | 0.0 | 3.0 | 0.00 | 0.00 | 0.00 | 60 | 1011.2 |
| 20260508045546 | 61 | 153 | 1.0 | 6.0 | 0.00 | 0.00 | 0.00 | 59 | 1011.4 |
| 20260508045044 | 61 | 144 | 1.0 | 3.0 | 0.00 | 0.00 | 0.00 | 59 | 1011.5 |
| 20260508044541 | 61 | 139 | 1.0 | 6.0 | 0.00 | 0.00 | 0.00 | 59 | 1011.4 |
| 20260508044037 | 61 | 147 | 2.0 | 6.0 | 0.00 | 0.00 | 0.00 | 58 | 1011.5 |
| 20260508043534 | 61 | 163 | 3.0 | 5.0 | 0.00 | 0.00 | 0.00 | 58 | 1011.5 |
| 20260508043032 | 61 | 142 | 2.0 | 3.0 | 0.00 | 0.00 | 0.00 | 58 | 1011.5 |
| 20260508042528 | 62 | 172 | 4.0 | 7.0 | 0.00 | 0.00 | 0.00 | 57 | 1011.4 |
| 20260508042026 | 62 | 160 | 3.0 | 3.0 | 0.00 | 0.00 | 0.00 | 57 | 1011.5 |
| 20260508041522 | 62 | 150 | 2.0 | 5.0 | 0.00 | 0.00 | 0.00 | 57 | 1011.5 |
| 20260508041018 | 62 | 140 | 3.0 | 5.0 | 0.00 | 0.00 | 0.00 | 57 | 1011.4 |
| 20260508040515 | 62 | 165 | 2.0 | 6.0 | 0.00 | 0.00 | 0.00 | 56 | 1011.9 |
| 20260508040013 | 62 | 144 | 1.0 | 3.0 | 0.00 | 0.00 | 0.00 | 56 | 1011.4 |
| 20260508035510 | 62 | 137 | 1.0 | 2.0 | 0.00 | 0.00 | 0.00 | 57 | 1011.6 |
| 20260508035007 | 62 | 146 | 1.0 | 6.0 | 0.00 | 0.00 | 0.00 | 56 | 1011.4 |
| 20260508034504 | 62 | 159 | 4.0 | 6.0 | 0.00 | 0.00 | 0.00 | 55 | 1011.5 |
| 20260508034001 | 62 | 143 | 1.0 | 3.0 | 0.00 | 0.00 | 0.00 | 56 | 1011.3 |
| 20260508033458 | 62 | 144 | 2.0 | 3.0 | 0.00 | 0.00 | 0.00 | 56 | 1011.3 |
| 20260508032956 | 62 | 147 | 2.0 | 5.0 | 0.00 | 0.00 | 0.00 | 56 | 1011.5 |
| 20260508032453 | 63 | 136 | 1.0 | 5.0 | 0.00 | 0.00 | 0.00 | 56 | 1011.4 |
| 20260508031950 | 63 | 134 | 1.0 | 5.0 | 0.00 | 0.00 | 0.00 | 56 | 1011.3 |
| 20260508031448 | 63 | 151 | 1.0 | 5.0 | 0.00 | 0.00 | 0.00 | 55 | 1011.4 |
| 20260508030942 | 62 | 153 | 3.0 | 5.0 | 0.00 | 0.00 | 0.00 | 55 | 1011.1 |
| 20260508030440 | 63 | 154 | 3.0 | 3.0 | 0.00 | 0.00 | 0.00 | 56 | 1011.3 |
| 20260508025937 | 63 | 143 | 2.0 | 5.0 | 0.00 | 0.00 | 0.00 | 55 | 1011.0 |
| 20260508025434 | 63 | 145 | 2.0 | 3.0 | 0.00 | 0.00 | 0.00 | 55 | 1011.1 |
| 20260508024931 | 63 | 165 | 2.0 | 6.0 | 0.00 | 0.00 | 0.00 | 54 | 1011.0 |
| 20260508024427 | 63 | 138 | 1.0 | 3.0 | 0.00 | 0.00 | 0.00 | 54 | 1011.1 |
| 20260508023924 | 63 | 149 | 2.0 | 5.0 | 0.00 | 0.00 | 0.00 | 54 | 1010.8 |
| 20260508023421 | 63 | 141 | 2.0 | 3.0 | 0.00 | 0.00 | 0.00 | 55 | 1010.8 |
| 20260508022918 | 63 | 154 | 2.0 | 3.0 | 0.00 | 0.00 | 0.00 | 55 | 1010.7 |
| 20260508022413 | 64 | 155 | 4.0 | 6.0 | 0.00 | 0.00 | 0.00 | 54 | 1010.8 |
| 20260508021910 | 63 | 156 | 3.0 | 3.0 | 0.00 | 0.00 | 0.00 | 54 | 1010.8 |
| 20260508021406 | 64 | 150 | 2.0 | 5.0 | 0.00 | 0.00 | 0.00 | 54 | 1010.5 |
| 20260508020902 | 64 | 153 | 2.0 | 3.0 | 0.00 | 0.00 | 0.00 | 53 | 1010.6 |
| 20260508020401 | 64 | 149 | 2.0 | 6.0 | 0.00 | 0.00 | 0.00 | 53 | 1010.7 |
| 20260508015857 | 64 | 152 | 3.0 | 9.0 | 0.00 | 0.00 | 0.00 | 53 | 1010.5 |
| 20260508015355 | 64 | 157 | 3.0 | 6.0 | 0.00 | 0.00 | 0.00 | 52 | 1010.5 |
| 20260508014851 | 64 | 153 | 2.0 | 5.0 | 0.00 | 0.00 | 0.00 | 52 | 1010.6 |
| 20260508014349 | 64 | 150 | 3.0 | 3.0 | 0.00 | 0.00 | 0.00 | 53 | 1010.5 |
| 20260508013844 | 64 | 157 | 3.0 | 6.0 | 0.00 | 0.00 | 0.00 | 52 | 1010.4 |
| 20260508013340 | 64 | 152 | 2.0 | 3.0 | 0.00 | 0.00 | 0.00 | 52 | 1010.5 |
| 20260508012838 | 64 | 143 | 2.0 | 2.0 | 0.00 | 0.00 | 0.00 | 52 | 1010.3 |
| 20260508012335 | 65 | 151 | 2.0 | 3.0 | 0.00 | 0.00 | 0.00 | 51 | 1010.4 |
| 20260508011833 | 65 | 149 | 2.0 | 5.0 | 0.00 | 0.00 | 0.00 | 51 | 1010.5 |
| 20260508011330 | 65 | 147 | 3.0 | 6.0 | 0.00 | 0.00 | 0.00 | 49 | 1010.2 |
| 20260508010827 | 66 | 150 | 2.0 | 3.0 | 0.00 | 0.00 | 0.00 | 49 | 1010.4 |
| 20260508010325 | 66 | 142 | 1.0 | 5.0 | 0.00 | 0.00 | 0.00 | 49 | 1010.4 |
| 20260508005822 | 66 | 149 | 2.0 | 3.0 | 0.00 | 0.00 | 0.00 | 49 | 1010.4 |
| 20260508005318 | 66 | 147 | 2.0 | 3.0 | 0.00 | 0.00 | 0.00 | 49 | 1010.5 |
| 20260508004815 | 66 | 127 | 0.0 | 5.0 | 0.00 | 0.00 | 0.00 | 49 | 1010.3 |
| 20260508004311 | 66 | 152 | 1.0 | 6.0 | 0.00 | 0.00 | 0.00 | 48 | 1010.5 |
| 20260508003807 | 66 | 148 | 3.0 | 3.0 | 0.00 | 0.00 | 0.00 | 48 | 1010.5 |
| 20260508003305 | 67 | 154 | 3.0 | 6.0 | 0.00 | 0.00 | 0.00 | 48 | 1010.6 |
| 20260508002801 | 67 | 148 | 2.0 | 3.0 | 0.00 | 0.00 | 0.00 | 47 | 1010.6 |
| 20260508002258 | 67 | 130 | 1.0 | 6.0 | 0.00 | 0.00 | 0.00 | 48 | 1010.5 |
| 20260508001754 | 67 | 159 | 3.0 | 3.0 | 0.00 | 0.00 | 0.00 | 49 | 1010.8 |
| 20260508001250 | 67 | 149 | 2.0 | 3.0 | 0.00 | 0.00 | 0.00 | 47 | 1010.5 |
| 20260508000746 | 67 | 139 | 2.0 | 3.0 | 0.00 | 0.00 | 0.00 | 48 | 1010.6 |
| 20260508000244 | 67 | 149 | 2.0 | 3.0 | 0.00 | 0.00 | 0.00 | 47 | 1010.9 |
| 20260507235740 | 68 | 128 | 2.0 | 5.0 | 0.00 | 0.00 | 0.00 | 46 | 1010.8 |
| 20260507235238 | 68 | 151 | 3.0 | 3.0 | 0.00 | 0.00 | 0.00 | 45 | 1010.9 |
| 20260507234734 | 68 | 118 | 5.0 | 6.0 | 0.00 | 0.00 | 0.00 | 44 | 1010.8 |
| 20260507234231 | 68 | 183 | 5.0 | 6.0 | 0.00 | 0.00 | 0.00 | 44 | 1011.0 |
| 20260507233727 | 68 | 186 | 4.0 | 6.0 | 0.00 | 0.00 | 0.00 | 43 | 1011.0 |
| 20260507233226 | 69 | 152 | 6.0 | 7.0 | 0.00 | 0.00 | 0.00 | 43 | 1011.1 |
| 20260507232723 | 69 | 132 | 3.0 | 3.0 | 0.00 | 0.00 | 0.00 | 45 | 1011.0 |
| 20260507232220 | 69 | 150 | 3.0 | 5.0 | 0.00 | 0.00 | 0.00 | 43 | 1010.9 |
| 20260507231716 | 69 | 211 | 3.0 | 7.0 | 0.00 | 0.00 | 0.00 | 43 | 1011.1 |
| 20260507231213 | 69 | 141 | 4.0 | 7.0 | 0.00 | 0.00 | 0.00 | 43 | 1010.7 |
| 20260507230710 | 69 | 150 | 3.0 | 8.0 | 0.00 | 0.00 | 0.00 | 44 | 1011.0 |
| 20260507230208 | 69 | 147 | 6.0 | 8.0 | 0.00 | 0.00 | 0.00 | 44 | 1011.1 |
| 20260507225706 | 69 | 157 | 6.0 | 8.0 | 0.00 | 0.00 | 0.00 | 45 | 1011.1 |
| 20260507225203 | 69 | 139 | 1.0 | 5.0 | 0.00 | 0.00 | 0.00 | 44 | 1011.0 |
| 20260507224659 | 69 | 135 | 2.0 | 5.0 | 0.00 | 0.00 | 0.00 | 44 | 1011.3 |
| 20260507224155 | 69 | 158 | 4.0 | 10.0 | 0.00 | 0.00 | 0.00 | 43 | 1011.0 |
| 20260507223652 | 69 | 150 | 1.0 | 7.0 | 0.00 | 0.00 | 0.00 | 44 | 1011.0 |
| 20260507223149 | 69 | 263 | 4.0 | 8.0 | 0.00 | 0.00 | 0.00 | 43 | 1011.2 |
| 20260507222646 | 69 | 150 | 1.0 | 7.0 | 0.00 | 0.00 | 0.00 | 44 | 1011.3 |
| 20260507222142 | 69 | 125 | 1.0 | 10.0 | 0.00 | 0.00 | 0.00 | 45 | 1011.3 |
| 20260507221639 | 69 | 147 | 2.0 | 5.0 | 0.00 | 0.00 | 0.00 | 46 | 1011.3 |
| 20260507221135 | 69 | 180 | 3.0 | 6.0 | 0.00 | 0.00 | 0.00 | 46 | 1011.3 |
| 20260507220632 | 69 | 211 | 4.0 | 6.0 | 0.00 | 0.00 | 0.00 | 46 | 1011.2 |
| 20260507220130 | 68 | 170 | 5.0 | 8.0 | 0.00 | 0.00 | 0.00 | 46 | 1011.4 |
| 20260507215626 | 68 | 269 | 3.0 | 7.0 | 0.00 | 0.00 | 0.00 | 45 | 1011.3 |
| 20260507215124 | 68 | 223 | 4.0 | 8.0 | 0.00 | 0.00 | 0.00 | 45 | 1011.4 |
| 20260507214620 | 67 | 179 | 2.0 | 6.0 | 0.00 | 0.00 | 0.00 | 46 | 1011.2 |
| 20260507214117 | 68 | 135 | 3.0 | 7.0 | 0.00 | 0.00 | 0.00 | 45 | 1011.7 |
| 20260507213613 | 68 | 149 | 3.0 | 7.0 | 0.00 | 0.00 | 0.00 | 45 | 1011.6 |
| 20260507213110 | 68 | 184 | 3.0 | 7.0 | 0.00 | 0.00 | 0.00 | 46 | 1011.9 |
| 20260507212606 | 68 | 168 | 4.0 | 6.0 | 0.00 | 0.00 | 0.00 | 46 | 1011.4 |
| 20260507212103 | 68 | 168 | 3.0 | 5.0 | 0.00 | 0.00 | 0.00 | 46 | 1012.1 |
| 20260507211600 | 68 | 137 | 3.0 | 7.0 | 0.00 | 0.00 | 0.00 | 46 | 1011.7 |
| 20260507211056 | 68 | 314 | 5.0 | 8.0 | 0.00 | 0.00 | 0.00 | 46 | 1012.1 |
| 20260507210553 | 67 | 183 | 5.0 | 7.0 | 0.00 | 0.00 | 0.00 | 45 | 1012.3 |
| 20260507210050 | 67 | 267 | 6.0 | 10.0 | 0.00 | 0.00 | 0.00 | 46 | 1012.3 |
| 20260507205547 | 67 | 164 | 4.0 | 6.0 | 0.00 | 0.00 | 0.00 | 48 | 1012.4 |
| 20260507205043 | 68 | 199 | 7.0 | 9.0 | 0.00 | 0.00 | 0.00 | 47 | 1012.6 |
| 20260507204539 | 67 | 161 | 3.0 | 7.0 | 0.00 | 0.00 | 0.00 | 48 | 1012.6 |
| 20260507204037 | 67 | 310 | 5.0 | 9.0 | 0.00 | 0.00 | 0.00 | 48 | 1012.6 |
| 20260507203535 | 66 | 198 | 5.0 | 13.0 | 0.00 | 0.00 | 0.00 | 47 | 1012.7 |
| 20260507203032 | 66 | 253 | 5.0 | 8.0 | 0.00 | 0.00 | 0.00 | 49 | 1012.9 |
| 20260507202528 | 66 | 170 | 8.0 | 11.0 | 0.00 | 0.00 | 0.00 | 49 | 1012.8 |
| 20260507202024 | 66 | 145 | 2.0 | 8.0 | 0.00 | 0.00 | 0.00 | 49 | 1013.0 |
| 20260507201520 | 66 | 135 | 7.0 | 14.0 | 0.00 | 0.00 | 0.00 | 49 | 1013.1 |
| 20260507201016 | 64 | 177 | 3.0 | 10.0 | 0.00 | 0.00 | 0.00 | 50 | 1013.2 |
| 20260507200512 | 64 | 176 | 3.0 | 8.0 | 0.00 | 0.00 | 0.00 | 49 | 1013.1 |
| 20260507200008 | 66 | 204 | 8.0 | 11.0 | 0.00 | 0.00 | 0.00 | 49 | 1013.3 |
| 20260507195505 | 66 | 185 | 5.0 | 10.0 | 0.00 | 0.00 | 0.00 | 49 | 1013.3 |
| 20260507195003 | 66 | 177 | 4.0 | 9.0 | 0.00 | 0.00 | 0.00 | 49 | 1013.2 |
| 20260507194459 | 66 | 153 | 5.0 | 9.0 | 0.00 | 0.00 | 0.00 | 48 | 1013.4 |
| 20260507193955 | 65 | 168 | 4.0 | 9.0 | 0.00 | 0.00 | 0.00 | 49 | 1013.5 |
| 20260507193452 | 65 | 218 | 4.0 | 9.0 | 0.00 | 0.00 | 0.00 | 50 | 1013.4 |
| 20260507192949 | 65 | 141 | 6.0 | 14.0 | 0.00 | 0.00 | 0.00 | 50 | 1013.5 |
| 20260507192445 | 65 | 194 | 3.0 | 10.0 | 0.00 | 0.00 | 0.00 | 50 | 1013.6 |
| 20260507191942 | 64 | 297 | 4.0 | 10.0 | 0.00 | 0.00 | 0.00 | 50 | 1013.9 |
| 20260507191438 | 64 | 224 | 4.0 | 9.0 | 0.00 | 0.00 | 0.00 | 50 | 1013.7 |
| 20260507190935 | 64 | 125 | 4.0 | 9.0 | 0.00 | 0.00 | 0.00 | 49 | 1013.9 |
| 20260507190432 | 64 | 158 | 3.0 | 9.0 | 0.00 | 0.00 | 0.00 | 50 | 1013.8 |
| 20260507185931 | 64 | 180 | 7.0 | 10.0 | 0.00 | 0.00 | 0.00 | 50 | 1014.1 |
| 20260507185428 | 63 | 140 | 5.0 | 7.0 | 0.00 | 0.00 | 0.00 | 52 | 1013.9 |
| 20260507184925 | 65 | 194 | 4.0 | 6.0 | 0.00 | 0.00 | 0.00 | 51 | 1014.2 |
| 20260507184423 | 64 | 122 | 7.0 | 11.0 | 0.00 | 0.00 | 0.00 | 51 | 1014.4 |
| 20260507183920 | 63 | 171 | 2.0 | 8.0 | 0.00 | 0.00 | 0.00 | 52 | 1014.2 |
| 20260507183417 | 63 | 176 | 4.0 | 8.0 | 0.00 | 0.00 | 0.00 | 53 | 1014.4 |
| 20260507182914 | 63 | 197 | 8.0 | 11.0 | 0.00 | 0.00 | 0.00 | 52 | 1014.4 |
| 20260507182410 | 63 | 165 | 5.0 | 15.0 | 0.00 | 0.00 | 0.00 | 53 | 1014.5 |
| 20260507181906 | 62 | 121 | 2.0 | 13.0 | 0.00 | 0.00 | 0.00 | 52 | 1014.6 |